sensor_id;sensor_type;location;lat;lon;timestamp;pressure;altitude;pressure_sealevel;temperature;humidity
3294;BME280;1659;51.470;6.770;2023-01-30T00:01:02;101792.09;;;3.52;90.14
3294;BME280;1659;51.470;6.770;2023-01-30T00:03:29;101786.00;;;3.53;90.11
3294;BME280;1659;51.470;6.770;2023-01-30T00:05:56;101780.81;;;3.54;90.23
3294;BME280;1659;51.470;6.770;2023-01-30T00:08:22;101763.44;;;3.56;90.48
3294;BME280;1659;51.470;6.770;2023-01-30T00:10:49;101765.22;;;3.57;90.37
3294;BME280;1659;51.470;6.770;2023-01-30T00:13:15;101759.22;;;3.60;90.55
3294;BME280;1659;51.470;6.770;2023-01-30T00:15:42;101759.22;;;3.62;90.56
3294;BME280;1659;51.470;6.770;2023-01-30T00:18:10;101754.91;;;3.62;90.74
3294;BME280;1659;51.470;6.770;2023-01-30T00:20:36;101765.41;;;3.64;90.75
3294;BME280;1659;51.470;6.770;2023-01-30T00:23:03;101756.69;;;3.65;90.67
3294;BME280;1659;51.470;6.770;2023-01-30T00:25:30;101748.06;;;3.67;91.05
3294;BME280;1659;51.470;6.770;2023-01-30T00:27:58;101724.59;;;3.69;91.08
3294;BME280;1659;51.470;6.770;2023-01-30T00:30:25;101727.22;;;3.70;90.98
3294;BME280;1659;51.470;6.770;2023-01-30T00:32:54;101726.38;;;3.71;91.23
3294;BME280;1659;51.470;6.770;2023-01-30T00:35:23;101727.28;;;3.73;90.96
3294;BME280;1659;51.470;6.770;2023-01-30T00:37:53;101710.78;;;3.74;91.46
3294;BME280;1659;51.470;6.770;2023-01-30T00:40:20;101686.38;;;3.75;91.45
3294;BME280;1659;51.470;6.770;2023-01-30T00:42:46;101693.38;;;3.76;91.47
3294;BME280;1659;51.470;6.770;2023-01-30T00:45:31;101695.19;;;3.79;91.68
3294;BME280;1659;51.470;6.770;2023-01-30T00:48:26;101703.97;;;3.81;91.50
3294;BME280;1659;51.470;6.770;2023-01-30T00:50:54;101698.75;;;3.83;91.77
3294;BME280;1659;51.470;6.770;2023-01-30T00:53:21;101692.72;;;3.85;91.50
3294;BME280;1659;51.470;6.770;2023-01-30T00:55:49;101677.06;;;3.87;91.87
3294;BME280;1659;51.470;6.770;2023-01-30T00:58:16;101670.16;;;3.89;92.01
3294;BME280;1659;51.470;6.770;2023-01-30T01:00:42;101678.00;;;3.89;92.30
3294;BME280;1659;51.470;6.770;2023-01-30T01:03:09;101685.00;;;3.91;92.03
3294;BME280;1659;51.470;6.770;2023-01-30T01:05:35;101684.16;;;3.92;92.39
3294;BME280;1659;51.470;6.770;2023-01-30T01:08:04;101674.53;;;3.91;92.00
3294;BME280;1659;51.470;6.770;2023-01-30T01:10:30;101667.66;;;3.93;92.13
3294;BME280;1659;51.470;6.770;2023-01-30T01:12:57;101669.41;;;3.94;92.11
3294;BME280;1659;51.470;6.770;2023-01-30T01:15:25;101655.53;;;3.97;92.53
3294;BME280;1659;51.470;6.770;2023-01-30T01:17:52;101655.53;;;3.97;92.41
3294;BME280;1659;51.470;6.770;2023-01-30T01:20:19;101645.94;;;3.97;92.34
3294;BME280;1659;51.470;6.770;2023-01-30T01:22:46;101651.19;;;3.99;92.55
3294;BME280;1659;51.470;6.770;2023-01-30T01:25:16;101653.84;;;4.01;92.89
3294;BME280;1659;51.470;6.770;2023-01-30T01:27:43;101641.69;;;4.03;92.90
3294;BME280;1659;51.470;6.770;2023-01-30T01:30:11;101641.78;;;4.06;92.83
3294;BME280;1659;51.470;6.770;2023-01-30T01:32:40;101651.41;;;4.08;93.03
3294;BME280;1659;51.470;6.770;2023-01-30T01:35:07;101644.47;;;4.10;93.06
3294;BME280;1659;51.470;6.770;2023-01-30T01:37:34;101644.50;;;4.12;93.08
3294;BME280;1659;51.470;6.770;2023-01-30T01:40:01;101640.19;;;4.14;93.11
3294;BME280;1659;51.470;6.770;2023-01-30T01:42:46;101642.84;;;4.15;93.49
3294;BME280;1659;51.470;6.770;2023-01-30T01:45:17;101647.28;;;4.18;93.15
3294;BME280;1659;51.470;6.770;2023-01-30T01:47:56;101642.94;;;4.20;93.50
3294;BME280;1659;51.470;6.770;2023-01-30T01:50:27;101624.72;;;4.23;93.22
3294;BME280;1659;51.470;6.770;2023-01-30T01:52:58;101636.06;;;4.25;93.79
3294;BME280;1659;51.470;6.770;2023-01-30T01:55:27;101618.72;;;4.29;93.25
3294;BME280;1659;51.470;6.770;2023-01-30T01:57:58;101603.03;;;4.30;93.47
3294;BME280;1659;51.470;6.770;2023-01-30T02:00:29;101606.56;;;4.32;93.79
3294;BME280;1659;51.470;6.770;2023-01-30T02:02:58;101606.63;;;4.35;93.66
3294;BME280;1659;51.470;6.770;2023-01-30T02:05:28;101582.25;;;4.38;93.75
3294;BME280;1659;51.470;6.770;2023-01-30T02:07:59;101594.56;;;4.42;93.66
3294;BME280;1659;51.470;6.770;2023-01-30T02:10:35;101582.44;;;4.46;93.83
3294;BME280;1659;51.470;6.770;2023-01-30T02:13:06;101587.69;;;4.49;94.08
3294;BME280;1659;51.470;6.770;2023-01-30T02:15:33;101579.03;;;4.51;93.60
3294;BME280;1659;51.470;6.770;2023-01-30T02:18:00;101573.00;;;4.56;93.94
3294;BME280;1659;51.470;6.770;2023-01-30T02:20:40;101566.97;;;4.60;93.99
3294;BME280;1659;51.470;6.770;2023-01-30T02:23:50;101541.75;;;4.63;93.61
3294;BME280;1659;51.470;6.770;2023-01-30T02:26:44;101558.38;;;4.67;93.71
3294;BME280;1659;51.470;6.770;2023-01-30T02:32:33;101536.69;;;4.74;93.74
3294;BME280;1659;51.470;6.770;2023-01-30T02:35:07;101531.50;;;4.79;94.29
3294;BME280;1659;51.470;6.770;2023-01-30T02:37:48;101526.34;;;4.82;94.13
3294;BME280;1659;51.470;6.770;2023-01-30T02:40:32;101519.38;;;4.84;93.71
3294;BME280;1659;51.470;6.770;2023-01-30T02:43:07;101528.16;;;4.86;94.08
3294;BME280;1659;51.470;6.770;2023-01-30T02:45:41;101526.44;;;4.86;94.03
3294;BME280;1659;51.470;6.770;2023-01-30T02:48:15;101524.72;;;4.88;94.12
3294;BME280;1659;51.470;6.770;2023-01-30T02:50:45;101520.38;;;4.90;94.19
3294;BME280;1659;51.470;6.770;2023-01-30T02:53:13;101511.69;;;4.93;94.28
3294;BME280;1659;51.470;6.770;2023-01-30T02:55:41;101528.31;;;4.95;94.00
3294;BME280;1659;51.470;6.770;2023-01-30T02:58:08;101528.34;;;4.97;94.47
3294;BME280;1659;51.470;6.770;2023-01-30T03:00:53;101508.31;;;5.00;93.98
3294;BME280;1659;51.470;6.770;2023-01-30T03:03:50;101505.75;;;5.03;94.17
3294;BME280;1659;51.470;6.770;2023-01-30T03:06:49;101504.03;;;5.05;94.58
3294;BME280;1659;51.470;6.770;2023-01-30T03:09:24;101497.06;;;5.06;94.69
3294;BME280;1659;51.470;6.770;2023-01-30T03:12:02;101498.84;;;5.08;94.58
3294;BME280;1659;51.470;6.770;2023-01-30T03:14:36;101504.97;;;5.09;94.67
3294;BME280;1659;51.470;6.770;2023-01-30T03:17:07;101494.50;;;5.09;94.12
3294;BME280;1659;51.470;6.770;2023-01-30T03:19:36;101487.50;;;5.09;94.61
3294;BME280;1659;51.470;6.770;2023-01-30T03:22:03;101475.28;;;5.10;94.87
3294;BME280;1659;51.470;6.770;2023-01-30T03:24:30;101465.69;;;5.10;94.48
3294;BME280;1659;51.470;6.770;2023-01-30T03:27:01;101462.19;;;5.11;94.53
3294;BME280;1659;51.470;6.770;2023-01-30T03:29:28;101461.31;;;5.11;94.72
3294;BME280;1659;51.470;6.770;2023-01-30T03:31:55;101454.34;;;5.11;94.95
3294;BME280;1659;51.470;6.770;2023-01-30T03:34:21;101455.22;;;5.10;94.98
3294;BME280;1659;51.470;6.770;2023-01-30T03:36:50;101463.94;;;5.11;94.94
3294;BME280;1659;51.470;6.770;2023-01-30T03:39:16;101470.94;;;5.10;94.56
3294;BME280;1659;51.470;6.770;2023-01-30T03:41:43;101454.38;;;5.13;95.02
3294;BME280;1659;51.470;6.770;2023-01-30T03:44:09;101461.41;;;5.16;95.42
3294;BME280;1659;51.470;6.770;2023-01-30T03:46:36;101452.63;;;5.15;95.38
3294;BME280;1659;51.470;6.770;2023-01-30T03:49:02;101450.94;;;5.16;95.38
3294;BME280;1659;51.470;6.770;2023-01-30T03:51:29;101443.94;;;5.16;95.00
3294;BME280;1659;51.470;6.770;2023-01-30T03:53:57;101442.19;;;5.17;95.30
3294;BME280;1659;51.470;6.770;2023-01-30T03:56:23;101443.09;;;5.17;95.34
3294;BME280;1659;51.470;6.770;2023-01-30T03:58:50;101439.56;;;5.17;95.62
3294;BME280;1659;51.470;6.770;2023-01-30T04:01:17;101443.09;;;5.17;95.83
3294;BME280;1659;51.470;6.770;2023-01-30T04:03:43;101430.00;;;5.17;95.55
3294;BME280;1659;51.470;6.770;2023-01-30T04:06:10;101433.44;;;5.15;95.72
3294;BME280;1659;51.470;6.770;2023-01-30T04:08:36;101419.44;;;5.13;95.93
3294;BME280;1659;51.470;6.770;2023-01-30T04:11:04;101427.28;;;5.11;96.20
3294;BME280;1659;51.470;6.770;2023-01-30T04:13:31;101431.63;;;5.10;96.27
3294;BME280;1659;51.470;6.770;2023-01-30T04:16:13;101420.28;;;5.11;96.55
3294;BME280;1659;51.470;6.770;2023-01-30T04:18:40;101432.53;;;5.13;96.87
3294;BME280;1659;51.470;6.770;2023-01-30T04:21:06;101424.69;;;5.13;96.61
3294;BME280;1659;51.470;6.770;2023-01-30T04:23:33;101418.56;;;5.14;96.67
3294;BME280;1659;51.470;6.770;2023-01-30T04:25:59;101415.94;;;5.12;96.86
3294;BME280;1659;51.470;6.770;2023-01-30T04:28:27;101416.81;;;5.13;97.15
3294;BME280;1659;51.470;6.770;2023-01-30T04:30:54;101411.56;;;5.13;97.53
3294;BME280;1659;51.470;6.770;2023-01-30T04:33:20;101415.00;;;5.10;97.72
3294;BME280;1659;51.470;6.770;2023-01-30T04:35:51;101416.75;;;5.09;97.03
3294;BME280;1659;51.470;6.770;2023-01-30T04:38:17;101408.91;;;5.09;97.64
3294;BME280;1659;51.470;6.770;2023-01-30T04:40:47;101403.63;;;5.08;97.49
3294;BME280;1659;51.470;6.770;2023-01-30T04:43:13;101413.28;;;5.09;97.99
3294;BME280;1659;51.470;6.770;2023-01-30T04:45:43;101403.66;;;5.09;98.18
3294;BME280;1659;51.470;6.770;2023-01-30T04:48:09;101393.22;;;5.11;98.36
3294;BME280;1659;51.470;6.770;2023-01-30T04:50:36;101393.22;;;5.11;98.20
3294;BME280;1659;51.470;6.770;2023-01-30T04:53:02;101395.00;;;5.12;98.98
3294;BME280;1659;51.470;6.770;2023-01-30T04:55:29;101404.59;;;5.13;98.83
3294;BME280;1659;51.470;6.770;2023-01-30T04:57:56;101405.47;;;5.14;99.31
3294;BME280;1659;51.470;6.770;2023-01-30T05:00:23;101411.63;;;5.16;99.06
3294;BME280;1659;51.470;6.770;2023-01-30T05:02:51;101401.16;;;5.17;99.21
3294;BME280;1659;51.470;6.770;2023-01-30T05:05:20;101390.69;;;5.19;99.25
3294;BME280;1659;51.470;6.770;2023-01-30T05:07:47;101394.22;;;5.21;98.90
3294;BME280;1659;51.470;6.770;2023-01-30T05:10:14;101408.22;;;5.23;99.35
3294;BME280;1659;51.470;6.770;2023-01-30T05:12:40;101411.75;;;5.25;99.22
3294;BME280;1659;51.470;6.770;2023-01-30T05:15:07;101399.53;;;5.27;100.00
3294;BME280;1659;51.470;6.770;2023-01-30T05:17:34;101403.94;;;5.28;99.79
3294;BME280;1659;51.470;6.770;2023-01-30T05:20:05;101389.09;;;5.30;100.00
3294;BME280;1659;51.470;6.770;2023-01-30T05:22:32;101385.59;;;5.31;100.00
3294;BME280;1659;51.470;6.770;2023-01-30T05:24:59;101375.13;;;5.33;100.00
3294;BME280;1659;51.470;6.770;2023-01-30T05:27:25;101374.31;;;5.35;99.74
3294;BME280;1659;51.470;6.770;2023-01-30T05:29:52;101392.69;;;5.37;100.00
3294;BME280;1659;51.470;6.770;2023-01-30T05:32:19;101384.84;;;5.38;100.00
3294;BME280;1659;51.470;6.770;2023-01-30T05:34:47;101379.59;;;5.38;100.00
3294;BME280;1659;51.470;6.770;2023-01-30T05:37:15;101375.25;;;5.40;100.00
3294;BME280;1659;51.470;6.770;2023-01-30T05:39:42;101385.75;;;5.42;100.00
3294;BME280;1659;51.470;6.770;2023-01-30T05:42:08;101390.13;;;5.43;100.00
3294;BME280;1659;51.470;6.770;2023-01-30T05:44:35;101399.78;;;5.45;100.00
3294;BME280;1659;51.470;6.770;2023-01-30T05:47:01;101383.19;;;5.46;100.00
3294;BME280;1659;51.470;6.770;2023-01-30T05:49:28;101379.72;;;5.47;100.00
3294;BME280;1659;51.470;6.770;2023-01-30T05:51:55;101374.50;;;5.51;100.00
3294;BME280;1659;51.470;6.770;2023-01-30T05:54:22;101378.03;;;5.53;100.00
3294;BME280;1659;51.470;6.770;2023-01-30T05:56:49;101385.94;;;5.56;100.00
3294;BME280;1659;51.470;6.770;2023-01-30T05:59:16;101393.81;;;5.59;100.00
3294;BME280;1659;51.470;6.770;2023-01-30T06:01:44;101400.84;;;5.61;100.00
3294;BME280;1659;51.470;6.770;2023-01-30T06:04:10;101396.47;;;5.62;100.00
3294;BME280;1659;51.470;6.770;2023-01-30T06:06:37;101399.13;;;5.63;100.00
3294;BME280;1659;51.470;6.770;2023-01-30T06:09:03;101408.75;;;5.66;100.00
3294;BME280;1659;51.470;6.770;2023-01-30T06:11:31;101398.25;;;5.66;100.00
3294;BME280;1659;51.470;6.770;2023-01-30T06:13:58;101396.56;;;5.68;100.00
3294;BME280;1659;51.470;6.770;2023-01-30T06:16:24;101404.41;;;5.70;100.00
3294;BME280;1659;51.470;6.770;2023-01-30T06:18:51;101413.22;;;5.73;100.00
3294;BME280;1659;51.470;6.770;2023-01-30T06:21:18;101399.25;;;5.76;100.00
3294;BME280;1659;51.470;6.770;2023-01-30T06:23:44;101404.56;;;5.80;100.00
3294;BME280;1659;51.470;6.770;2023-01-30T06:26:11;101403.69;;;5.83;100.00
3294;BME280;1659;51.470;6.770;2023-01-30T06:28:39;101402.88;;;5.87;100.00
3294;BME280;1659;51.470;6.770;2023-01-30T06:31:06;101391.53;;;5.90;100.00
3294;BME280;1659;51.470;6.770;2023-01-30T06:33:32;101400.31;;;5.93;100.00
3294;BME280;1659;51.470;6.770;2023-01-30T06:35:59;101394.25;;;5.97;100.00
3294;BME280;1659;51.470;6.770;2023-01-30T06:38:25;101395.19;;;5.99;100.00
3294;BME280;1659;51.470;6.770;2023-01-30T06:40:52;101415.31;;;6.02;100.00
3294;BME280;1659;51.470;6.770;2023-01-30T06:43:19;101416.19;;;6.04;100.00
3294;BME280;1659;51.470;6.770;2023-01-30T06:45:46;101421.50;;;6.07;100.00
3294;BME280;1659;51.470;6.770;2023-01-30T06:48:13;101425.03;;;6.11;100.00
3294;BME280;1659;51.470;6.770;2023-01-30T06:50:39;101426.78;;;6.13;100.00
3294;BME280;1659;51.470;6.770;2023-01-30T06:53:06;101436.44;;;6.14;100.00
3294;BME280;1659;51.470;6.770;2023-01-30T06:55:34;101432.06;;;6.16;100.00
3294;BME280;1659;51.470;6.770;2023-01-30T06:58:02;101435.59;;;6.18;100.00
3294;BME280;1659;51.470;6.770;2023-01-30T07:00:29;101423.38;;;6.19;100.00
3294;BME280;1659;51.470;6.770;2023-01-30T07:02:57;101428.63;;;6.20;100.00
3294;BME280;1659;51.470;6.770;2023-01-30T07:05:24;101421.66;;;6.22;100.00
3294;BME280;1659;51.470;6.770;2023-01-30T07:07:53;101418.16;;;6.25;100.00
3294;BME280;1659;51.470;6.770;2023-01-30T07:10:19;101409.47;;;6.29;100.00
3294;BME280;1659;51.470;6.770;2023-01-30T07:12:46;101414.72;;;6.29;100.00
3294;BME280;1659;51.470;6.770;2023-01-30T07:15:13;101422.59;;;6.29;100.00
3294;BME280;1659;51.470;6.770;2023-01-30T07:17:40;101410.31;;;6.27;100.00
3294;BME280;1659;51.470;6.770;2023-01-30T07:20:09;101430.38;;;6.21;100.00
3294;BME280;1659;51.470;6.770;2023-01-30T07:22:36;101428.59;;;6.17;100.00
3294;BME280;1659;51.470;6.770;2023-01-30T07:25:03;101434.72;;;6.18;100.00
3294;BME280;1659;51.470;6.770;2023-01-30T07:27:30;101430.34;;;6.17;100.00
3294;BME280;1659;51.470;6.770;2023-01-30T07:29:57;101443.41;;;6.12;100.00
3294;BME280;1659;51.470;6.770;2023-01-30T07:32:24;101446.91;;;6.13;100.00
3294;BME280;1659;51.470;6.770;2023-01-30T07:34:50;101452.13;;;6.08;100.00
3294;BME280;1659;51.470;6.770;2023-01-30T07:37:18;101456.44;;;6.04;100.00
3294;BME280;1659;51.470;6.770;2023-01-30T07:39:44;101471.28;;;6.04;100.00
3294;BME280;1659;51.470;6.770;2023-01-30T07:42:11;101461.69;;;6.04;100.00
3294;BME280;1659;51.470;6.770;2023-01-30T07:44:37;101474.78;;;6.04;100.00
3294;BME280;1659;51.470;6.770;2023-01-30T07:47:04;101464.31;;;6.06;100.00
3294;BME280;1659;51.470;6.770;2023-01-30T07:49:31;101461.78;;;6.12;100.00
3294;BME280;1659;51.470;6.770;2023-01-30T07:51:57;101460.91;;;6.15;100.00
3294;BME280;1659;51.470;6.770;2023-01-30T07:54:25;101477.56;;;6.18;100.00
3294;BME280;1659;51.470;6.770;2023-01-30T07:56:51;101471.47;;;6.19;100.00
3294;BME280;1659;51.470;6.770;2023-01-30T07:59:18;101471.44;;;6.16;100.00
3294;BME280;1659;51.470;6.770;2023-01-30T08:01:46;101467.91;;;6.14;100.00
3294;BME280;1659;51.470;6.770;2023-01-30T08:04:13;101465.28;;;6.13;100.00
3294;BME280;1659;51.470;6.770;2023-01-30T08:06:39;101472.28;;;6.14;100.00
3294;BME280;1659;51.470;6.770;2023-01-30T08:09:06;101484.63;;;6.21;100.00
3294;BME280;1659;51.470;6.770;2023-01-30T08:11:34;101481.25;;;6.36;100.00
3294;BME280;1659;51.470;6.770;2023-01-30T08:14:01;101482.31;;;6.55;100.00
3294;BME280;1659;51.470;6.770;2023-01-30T08:16:27;101466.63;;;6.61;100.00
3294;BME280;1659;51.470;6.770;2023-01-30T08:18:56;101472.78;;;6.63;99.67
3294;BME280;1659;51.470;6.770;2023-01-30T08:21:23;101470.13;;;6.61;99.78
3294;BME280;1659;51.470;6.770;2023-01-30T08:23:49;101479.75;;;6.59;99.74
3294;BME280;1659;51.470;6.770;2023-01-30T08:26:16;101491.09;;;6.58;99.36
3294;BME280;1659;51.470;6.770;2023-01-30T08:28:43;101477.94;;;6.57;99.65
3294;BME280;1659;51.470;6.770;2023-01-30T08:31:11;101482.31;;;6.55;99.46
3294;BME280;1659;51.470;6.770;2023-01-30T08:33:37;101491.06;;;6.54;99.15
3294;BME280;1659;51.470;6.770;2023-01-30T08:36:05;101499.84;;;6.56;99.46
3294;BME280;1659;51.470;6.770;2023-01-30T08:38:31;101501.59;;;6.57;98.41
3294;BME280;1659;51.470;6.770;2023-01-30T08:40:58;101501.63;;;6.60;98.52
3294;BME280;1659;51.470;6.770;2023-01-30T08:43:25;101520.91;;;6.62;98.90
3294;BME280;1659;51.470;6.770;2023-01-30T08:45:53;101516.56;;;6.66;98.04
3294;BME280;1659;51.470;6.770;2023-01-30T08:48:21;101531.44;;;6.67;97.14
3294;BME280;1659;51.470;6.770;2023-01-30T08:50:50;101531.47;;;6.68;96.77
3294;BME280;1659;51.470;6.770;2023-01-30T08:53:17;101529.72;;;6.69;96.85
3294;BME280;1659;51.470;6.770;2023-01-30T08:55:44;101517.47;;;6.71;96.41
3294;BME280;1659;51.470;6.770;2023-01-30T08:58:10;101514.88;;;6.74;95.45
3294;BME280;1659;51.470;6.770;2023-01-30T09:00:37;101504.41;;;6.77;95.18
3294;BME280;1659;51.470;6.770;2023-01-30T09:03:05;101504.44;;;6.83;94.58
3294;BME280;1659;51.470;6.770;2023-01-30T09:05:32;101496.66;;;6.92;94.84
3294;BME280;1659;51.470;6.770;2023-01-30T09:07:59;101509.97;;;7.14;93.89
3294;BME280;1659;51.470;6.770;2023-01-30T09:10:26;101510.06;;;7.29;93.30
3294;BME280;1659;51.470;6.770;2023-01-30T09:12:52;101510.97;;;7.33;92.58
3294;BME280;1659;51.470;6.770;2023-01-30T09:15:19;101515.38;;;7.34;92.29
3294;BME280;1659;51.470;6.770;2023-01-30T09:17:45;101522.38;;;7.36;91.70
3294;BME280;1659;51.470;6.770;2023-01-30T09:20:13;101524.16;;;7.36;91.72
3294;BME280;1659;51.470;6.770;2023-01-30T09:22:40;101523.34;;;7.46;91.48
3294;BME280;1659;51.470;6.770;2023-01-30T09:25:07;101527.81;;;7.64;91.27
3294;BME280;1659;51.470;6.770;2023-01-30T09:27:34;101534.81;;;7.67;90.13
3294;BME280;1659;51.470;6.770;2023-01-30T09:30:01;101530.47;;;7.66;89.90
3294;BME280;1659;51.470;6.770;2023-01-30T09:32:28;101539.19;;;7.62;89.87
3294;BME280;1659;51.470;6.770;2023-01-30T09:34:54;101539.19;;;7.63;88.65
3294;BME280;1659;51.470;6.770;2023-01-30T09:37:22;101538.31;;;7.61;89.07
3294;BME280;1659;51.470;6.770;2023-01-30T09:39:48;101552.34;;;7.63;89.40
3294;BME280;1659;51.470;6.770;2023-01-30T09:42:37;101541.91;;;7.79;88.74
3294;BME280;1659;51.470;6.770;2023-01-30T09:45:24;101525.28;;;7.81;88.37
3294;BME280;1659;51.470;6.770;2023-01-30T09:47:57;101555.06;;;7.75;87.35
3294;BME280;1659;51.470;6.770;2023-01-30T09:50:41;101540.97;;;7.66;87.75
3294;BME280;1659;51.470;6.770;2023-01-30T09:53:19;101543.53;;;7.56;87.51
3294;BME280;1659;51.470;6.770;2023-01-30T09:55:48;101545.28;;;7.50;87.47
3294;BME280;1659;51.470;6.770;2023-01-30T09:58:17;101550.47;;;7.44;87.97
3294;BME280;1659;51.470;6.770;2023-01-30T10:00:44;101550.44;;;7.37;87.47
3294;BME280;1659;51.470;6.770;2023-01-30T10:03:14;101547.75;;;7.31;86.89
3294;BME280;1659;51.470;6.770;2023-01-30T10:05:46;101565.28;;;7.29;87.03
3294;BME280;1659;51.470;6.770;2023-01-30T10:08:43;101570.50;;;7.26;86.51
3294;BME280;1659;51.470;6.770;2023-01-30T10:11:20;101575.78;;;7.26;86.43
3294;BME280;1659;51.470;6.770;2023-01-30T10:16:44;101577.63;;;7.38;85.45
3294;BME280;1659;51.470;6.770;2023-01-30T10:19:38;101583.78;;;7.42;84.29
3294;BME280;1659;51.470;6.770;2023-01-30T10:22:18;101578.50;;;7.42;83.70
3294;BME280;1659;51.470;6.770;2023-01-30T10:24:58;101567.09;;;7.38;83.62
3294;BME280;1659;51.470;6.770;2023-01-30T10:27:29;101587.25;;;7.37;83.86
3294;BME280;1659;51.470;6.770;2023-01-30T10:30:02;101568.81;;;7.34;83.07
3294;BME280;1659;51.470;6.770;2023-01-30T10:32:34;101574.06;;;7.31;83.26
3294;BME280;1659;51.470;6.770;2023-01-30T10:35:06;101567.03;;;7.29;83.09
3294;BME280;1659;51.470;6.770;2023-01-30T10:37:43;101575.78;;;7.26;82.70
3294;BME280;1659;51.470;6.770;2023-01-30T10:40:18;101566.13;;;7.25;82.42
3294;BME280;1659;51.470;6.770;2023-01-30T10:42:54;101574.88;;;7.23;82.18
3294;BME280;1659;51.470;6.770;2023-01-30T10:45:27;101566.09;;;7.22;81.86
3294;BME280;1659;51.470;6.770;2023-01-30T10:48:14;101564.34;;;7.21;81.48
3294;BME280;1659;51.470;6.770;2023-01-30T10:50:49;101566.09;;;7.22;81.78
3294;BME280;1659;51.470;6.770;2023-01-30T10:53:24;101569.63;;;7.24;81.49
3294;BME280;1659;51.470;6.770;2023-01-30T10:55:59;101567.03;;;7.27;81.88
3294;BME280;1659;51.470;6.770;2023-01-30T10:58:31;101573.22;;;7.38;82.42
3294;BME280;1659;51.470;6.770;2023-01-30T11:01:06;101574.22;;;7.56;81.39
3294;BME280;1659;51.470;6.770;2023-01-30T11:03:37;101582.16;;;7.65;81.24
3294;BME280;1659;51.470;6.770;2023-01-30T11:06:10;101581.34;;;7.69;80.78
3294;BME280;1659;51.470;6.770;2023-01-30T11:08:38;101575.22;;;7.69;80.94
3294;BME280;1659;51.470;6.770;2023-01-30T11:24:23;101574.38;;;7.76;79.15
3294;BME280;1659;51.470;6.770;2023-01-30T11:26:55;101584.03;;;7.80;78.87
3294;BME280;1659;51.470;6.770;2023-01-30T11:29:27;101584.91;;;7.82;78.98
3294;BME280;1659;51.470;6.770;2023-01-30T11:31:54;101598.09;;;7.84;78.64
3294;BME280;1659;51.470;6.770;2023-01-30T11:34:22;101581.44;;;7.85;79.03
3294;BME280;1659;51.470;6.770;2023-01-30T11:36:50;101584.94;;;7.85;79.02
3294;BME280;1659;51.470;6.770;2023-01-30T11:39:20;101580.53;;;7.86;78.65
3294;BME280;1659;51.470;6.770;2023-01-30T11:41:58;101579.69;;;7.88;78.73
3294;BME280;1659;51.470;6.770;2023-01-30T11:44:26;101589.38;;;7.94;78.54
3294;BME280;1659;51.470;6.770;2023-01-30T11:46:53;101578.88;;;8.02;78.22
3294;BME280;1659;51.470;6.770;2023-01-30T11:49:23;101588.56;;;8.07;78.17
3294;BME280;1659;51.470;6.770;2023-01-30T11:51:53;101585.09;;;8.13;77.75
3294;BME280;1659;51.470;6.770;2023-01-30T11:54:26;101569.28;;;8.18;77.32
3294;BME280;1659;51.470;6.770;2023-01-30T11:56:57;101577.22;;;8.22;76.90
3294;BME280;1659;51.470;6.770;2023-01-30T11:59:27;101580.75;;;8.29;76.97
3294;BME280;1659;51.470;6.770;2023-01-30T12:02:02;101571.97;;;8.31;76.88
3294;BME280;1659;51.470;6.770;2023-01-30T12:04:29;101581.66;;;8.34;77.14
3294;BME280;1659;51.470;6.770;2023-01-30T12:07:04;101586.94;;;8.37;76.73
3294;BME280;1659;51.470;6.770;2023-01-30T12:09:33;101585.19;;;8.41;76.94
3294;BME280;1659;51.470;6.770;2023-01-30T12:12:02;101586.06;;;8.41;76.72
3294;BME280;1659;51.470;6.770;2023-01-30T12:14:37;101603.66;;;8.45;76.48
3294;BME280;1659;51.470;6.770;2023-01-30T12:17:13;101588.75;;;8.47;76.08
3294;BME280;1659;51.470;6.770;2023-01-30T12:19:51;101587.03;;;8.51;75.95
3294;BME280;1659;51.470;6.770;2023-01-30T12:22:25;101597.56;;;8.49;74.95
3294;BME280;1659;51.470;6.770;2023-01-30T12:24:57;101596.66;;;8.47;74.73
3294;BME280;1659;51.470;6.770;2023-01-30T12:27:32;101581.72;;;8.48;74.72
3294;BME280;1659;51.470;6.770;2023-01-30T12:30:04;101594.91;;;8.46;74.36
3294;BME280;1659;51.470;6.770;2023-01-30T12:32:34;101588.75;;;8.43;74.67
3294;BME280;1659;51.470;6.770;2023-01-30T12:35:01;101598.34;;;8.38;74.75
3294;BME280;1659;51.470;6.770;2023-01-30T12:37:49;101596.59;;;8.38;74.86
3294;BME280;1659;51.470;6.770;2023-01-30T12:40:29;101606.28;;;8.44;74.65
3294;BME280;1659;51.470;6.770;2023-01-30T12:43:29;101590.53;;;8.53;74.81
3294;BME280;1659;51.470;6.770;2023-01-30T12:46:06;101590.53;;;8.59;74.79
3294;BME280;1659;51.470;6.770;2023-01-30T12:48:47;101592.31;;;8.60;74.38
3294;BME280;1659;51.470;6.770;2023-01-30T12:51:41;101592.28;;;8.57;73.86
3294;BME280;1659;51.470;6.770;2023-01-30T12:54:21;101608.06;;;8.53;73.98
3294;BME280;1659;51.470;6.770;2023-01-30T12:56:58;101613.34;;;8.46;73.86
3294;BME280;1659;51.470;6.770;2023-01-30T12:59:33;101599.28;;;8.43;74.32
3294;BME280;1659;51.470;6.770;2023-01-30T13:02:27;101601.84;;;8.38;73.77
3294;BME280;1659;51.470;6.770;2023-01-30T13:05:09;101620.28;;;8.37;74.32
3294;BME280;1659;51.470;6.770;2023-01-30T13:07:59;101618.53;;;8.34;74.02
3294;BME280;1659;51.470;6.770;2023-01-30T13:10:32;101614.13;;;8.33;74.14
3294;BME280;1659;51.470;6.770;2023-01-30T13:13:10;101632.56;;;8.35;74.01
3294;BME280;1659;51.470;6.770;2023-01-30T13:15:46;101636.06;;;8.37;73.73
3294;BME280;1659;51.470;6.770;2023-01-30T13:18:20;101613.28;;;8.42;73.48
3294;BME280;1659;51.470;6.770;2023-01-30T13:20:55;101628.28;;;8.47;73.26
3294;BME280;1659;51.470;6.770;2023-01-30T13:23:33;101620.44;;;8.69;73.20
3294;BME280;1659;51.470;6.770;2023-01-30T13:26:06;101632.78;;;8.92;72.95
3294;BME280;1659;51.470;6.770;2023-01-30T13:28:37;101631.03;;;9.04;73.12
3294;BME280;1659;51.470;6.770;2023-01-30T13:31:08;101633.69;;;9.04;72.25
3294;BME280;1659;51.470;6.770;2023-01-30T13:33:38;101636.31;;;9.03;72.86
3294;BME280;1659;51.470;6.770;2023-01-30T13:36:12;101638.06;;;8.99;72.85
3294;BME280;1659;51.470;6.770;2023-01-30T13:38:45;101645.97;;;8.92;71.98
3294;BME280;1659;51.470;6.770;2023-01-30T13:41:15;101652.09;;;8.84;72.43
3294;BME280;1659;51.470;6.770;2023-01-30T13:43:47;101644.19;;;8.84;72.45
3294;BME280;1659;51.470;6.770;2023-01-30T13:46:21;101655.59;;;8.85;72.78
3294;BME280;1659;51.470;6.770;2023-01-30T13:49:01;101667.00;;;8.82;73.18
3294;BME280;1659;51.470;6.770;2023-01-30T13:51:42;101668.78;;;8.83;73.41
3294;BME280;1659;51.470;6.770;2023-01-30T13:54:41;101663.53;;;8.86;73.63
3294;BME280;1659;51.470;6.770;2023-01-30T13:57:17;101682.00;;;8.88;73.58